createdAt,value
2018-11-14T00:03:11.701Z,89.08
2018-11-14T00:07:17.005Z,89.14
2018-11-14T00:11:37.940Z,89.26
2018-11-14T00:15:41.930Z,89.20
2018-11-14T00:19:46.192Z,89.03
2018-11-14T00:23:50.436Z,88.88
2018-11-14T00:27:54.939Z,88.78
2018-11-14T00:31:59.016Z,88.61
2018-11-14T00:36:03.318Z,88.52
2018-11-14T00:40:09.665Z,88.07
2018-11-14T00:44:14.005Z,88.33
2018-11-14T00:48:18.144Z,88.02
2018-11-14T00:52:22.648Z,88.06
2018-11-14T00:56:26.636Z,87.73
2018-11-14T01:00:30.720Z,87.79
2018-11-14T01:04:35.147Z,87.88
2018-11-14T01:08:39.511Z,87.52
2018-11-14T01:12:44.924Z,87.27
2018-11-14T01:16:49.689Z,87.41
2018-11-14T01:20:53.870Z,87.31
2018-11-14T01:24:58.520Z,87.32
2018-11-14T01:29:03.054Z,87.74
2018-11-14T01:33:07.451Z,87.43
2018-11-14T01:37:11.995Z,87.38
2018-11-14T01:41:16.169Z,87.40
2018-11-14T01:45:20.721Z,87.87
2018-11-14T01:49:25.122Z,87.76
2018-11-14T01:53:29.272Z,87.42
2018-11-14T01:57:33.483Z,87.45
2018-11-14T02:01:37.773Z,87.46
2018-11-14T02:05:42.188Z,87.32
2018-11-14T02:09:46.773Z,88.13
2018-11-14T02:13:50.982Z,88.80
2018-11-14T02:17:55.252Z,87.67
2018-11-14T02:21:59.638Z,88.36
2018-11-14T02:26:03.918Z,88.33
2018-11-14T02:30:10.496Z,88.47
2018-11-14T02:34:14.612Z,88.65
2018-11-14T02:38:19.318Z,88.73
2018-11-14T02:42:23.901Z,88.28
2018-11-14T02:46:28.630Z,88.80
2018-11-14T02:50:32.850Z,89.45
2018-11-14T02:54:37.267Z,89.56
2018-11-14T02:58:41.571Z,89.21
2018-11-14T03:02:45.964Z,88.77
2018-11-14T03:06:50.127Z,89.46
2018-11-14T03:10:54.442Z,89.68
2018-11-14T03:14:58.844Z,89.45
2018-11-14T03:19:02.976Z,89.27
2018-11-14T03:23:07.404Z,89.13
2018-11-14T03:27:12.103Z,89.13
2018-11-14T03:31:16.482Z,89.47
2018-11-14T03:35:20.772Z,90.90
2018-11-14T03:39:25.140Z,90.70
2018-11-14T03:43:29.329Z,90.53
2018-11-14T03:47:33.708Z,91.90
2018-11-14T03:51:38.090Z,92.54
2018-11-14T03:55:42.390Z,91.93
2018-11-14T03:59:46.703Z,91.57
2018-11-14T04:03:51.741Z,90.67
2018-11-14T04:07:56.073Z,90.84
2018-11-14T04:12:00.302Z,91.07
2018-11-14T04:16:05.791Z,90.64
2018-11-14T04:20:12.285Z,90.72
2018-11-14T04:24:16.859Z,91.03
2018-11-14T04:28:20.965Z,90.73
2018-11-14T04:32:25.805Z,90.81
2018-11-14T04:36:29.993Z,90.43
2018-11-14T04:40:34.295Z,91.08
2018-11-14T04:44:38.406Z,91.04
2018-11-14T04:48:42.933Z,91.02
2018-11-14T04:52:48.040Z,91.25
2018-11-14T04:56:52.231Z,90.78
2018-11-14T05:00:56.377Z,90.69
2018-11-14T05:05:00.556Z,91.01
2018-11-14T05:09:09.040Z,90.63
2018-11-14T05:13:13.304Z,91.59
2018-11-14T05:17:17.641Z,91.10
2018-11-14T05:21:21.846Z,90.84
2018-11-14T05:25:26.780Z,90.92
2018-11-14T05:29:30.982Z,90.88
2018-11-14T05:33:35.241Z,90.62
2018-11-14T05:37:39.882Z,90.71
2018-11-14T05:41:44.594Z,90.56
2018-11-14T05:45:49.038Z,90.77
2018-11-14T05:49:53.221Z,90.60
2018-11-14T05:53:57.397Z,90.97
2018-11-14T05:58:01.691Z,90.35
2018-11-14T06:02:05.931Z,90.41
2018-11-14T06:06:10.645Z,90.50
2018-11-14T06:10:14.894Z,90.48
2018-11-14T06:14:18.998Z,90.44
2018-11-14T06:18:23.142Z,91.21
2018-11-14T06:22:27.442Z,90.98
2018-11-14T06:26:31.618Z,90.90
2018-11-14T06:30:37.020Z,90.32
2018-11-14T06:34:41.285Z,91.01
2018-11-14T06:38:46.088Z,90.97
2018-11-14T06:42:50.433Z,90.52
2018-11-14T06:46:55.295Z,90.32
2018-11-14T06:50:59.793Z,90.47
2018-11-14T06:55:06.418Z,90.29
2018-11-14T06:59:10.762Z,90.51
2018-11-14T07:03:15.077Z,90.25
2018-11-14T07:07:19.828Z,90.82
2018-11-14T07:11:24.202Z,91.74
2018-11-14T07:15:29.052Z,92.07
2018-11-14T07:19:33.400Z,92.99
2018-11-14T07:23:37.876Z,92.90
2018-11-14T07:27:42.286Z,93.87
2018-11-14T07:31:46.378Z,94.22
2018-11-14T07:35:50.564Z,95.16
2018-11-14T07:39:54.929Z,95.00
2018-11-14T07:43:59.328Z,94.81
2018-11-14T07:48:03.693Z,94.65
2018-11-14T07:52:07.855Z,94.60
2018-11-14T07:56:12.636Z,94.56
2018-11-14T08:00:17.969Z,95.27
2018-11-14T08:04:22.203Z,94.94
2018-11-14T08:08:26.413Z,94.41
2018-11-14T08:12:30.483Z,94.07
2018-11-14T08:16:34.520Z,94.61
2018-11-14T08:20:38.650Z,94.21
2018-11-14T08:24:42.681Z,93.85
2018-11-14T08:28:46.988Z,93.11
2018-11-14T08:32:51.345Z,92.31
2018-11-14T08:36:55.634Z,92.35
2018-11-14T08:40:59.958Z,92.29
2018-11-14T08:45:06.691Z,91.85
2018-11-14T08:49:11.377Z,91.70
2018-11-14T08:53:15.509Z,91.24
2018-11-14T08:57:20.219Z,90.13
2018-11-14T09:01:25.110Z,89.49
2018-11-14T09:05:30.373Z,89.85
2018-11-14T09:09:35.007Z,91.62
2018-11-14T09:13:39.386Z,89.08
2018-11-14T09:17:43.806Z,86.17
2018-11-14T09:21:48.374Z,82.22
2018-11-14T09:25:53.708Z,77.64
2018-11-14T09:29:58.213Z,73.82
2018-11-14T09:34:02.995Z,71.57
2018-11-14T09:38:07.325Z,69.58
2018-11-14T09:42:11.778Z,71.20
2018-11-14T09:46:15.918Z,68.71
2018-11-14T09:50:24.464Z,67.95
2018-11-14T09:54:29.228Z,65.23
2018-11-14T09:58:33.829Z,66.21
2018-11-14T10:02:38.251Z,64.38
2018-11-14T10:06:43.254Z,64.45
2018-11-14T10:10:47.480Z,63.51
2018-11-14T10:14:51.722Z,62.91
2018-11-14T10:18:56.018Z,60.54
2018-11-14T10:23:00.309Z,59.74
2018-11-14T10:27:05.304Z,57.99
2018-11-14T10:31:09.662Z,58.79
2018-11-14T10:35:14.280Z,57.85
2018-11-14T10:39:18.566Z,56.85
2018-11-14T10:43:22.828Z,59.61
2018-11-14T10:47:27.248Z,56.78
2018-11-14T10:51:31.564Z,57.64
2018-11-14T10:55:35.729Z,57.71
2018-11-14T10:59:40.416Z,56.46
2018-11-14T11:04:49.544Z,54.60
2018-11-14T11:08:59.047Z,55.51
2018-11-14T11:14:12.534Z,54.23
2018-11-14T11:18:17.743Z,54.51
2018-11-14T11:22:22.023Z,53.43
2018-11-14T11:26:26.588Z,53.60
2018-11-14T11:30:31.262Z,53.11
2018-11-14T11:34:35.789Z,50.57
2018-11-14T11:38:40.045Z,49.78
2018-11-14T11:42:44.621Z,49.24
2018-11-14T11:46:48.883Z,49.18
2018-11-14T11:50:53.592Z,49.48
2018-11-14T11:54:58.703Z,49.49
2018-11-14T11:59:02.792Z,49.69
2018-11-14T12:03:07.768Z,50.60
2018-11-14T12:07:12.044Z,51.62
2018-11-14T12:11:16.355Z,50.23
2018-11-14T12:15:20.947Z,49.61
2018-11-14T12:19:25.284Z,46.22
2018-11-14T12:23:30.369Z,46.86
2018-11-14T12:27:35.307Z,48.42
2018-11-14T12:31:39.748Z,47.10
2018-11-14T12:35:44.919Z,45.89
2018-11-14T12:39:49.979Z,46.73
2018-11-14T12:43:54.672Z,46.40
2018-11-14T12:47:58.943Z,46.97
2018-11-14T12:52:03.992Z,46.42
2018-11-14T12:56:08.569Z,46.35
2018-11-14T13:00:14.537Z,46.08
2018-11-14T13:04:19.178Z,46.56
2018-11-14T13:08:23.443Z,44.13
2018-11-14T13:12:27.981Z,46.92
2018-11-14T13:16:32.273Z,46.41
2018-11-14T13:20:36.663Z,45.91
2018-11-14T13:24:40.879Z,45.39
2018-11-14T13:28:45.315Z,43.98
2018-11-14T13:32:50.481Z,45.66
2018-11-14T13:36:55.070Z,46.97
2018-11-14T13:40:59.416Z,48.69
2018-11-14T13:45:03.523Z,48.33
2018-11-14T13:49:08.046Z,48.55
2018-11-14T13:53:11.906Z,49.91
2018-11-14T13:57:15.899Z,52.98
2018-11-14T14:01:19.968Z,55.65
2018-11-14T14:05:25.032Z,57.72
2018-11-14T14:09:29.090Z,58.74
2018-11-14T14:13:33.520Z,59.85
2018-11-14T14:17:37.876Z,60.92
2018-11-14T14:21:42.257Z,61.10
2018-11-14T14:25:46.209Z,61.52
2018-11-14T14:29:50.243Z,63.22
2018-11-14T14:33:54.152Z,63.96
2018-11-14T14:37:58.136Z,64.34
2018-11-14T14:42:02.320Z,64.67
2018-11-14T14:46:06.841Z,65.52
2018-11-14T14:50:13.773Z,66.02
2018-11-14T14:54:17.869Z,65.47
2018-11-14T14:58:21.881Z,65.87
2018-11-14T15:02:25.898Z,66.69
2018-11-14T15:06:29.949Z,66.93
2018-11-14T15:10:34.078Z,67.62
2018-11-14T15:14:38.137Z,67.93
2018-11-14T15:18:42.240Z,68.59
2018-11-14T15:22:46.411Z,68.51
2018-11-14T15:26:50.428Z,69.11
2018-11-14T15:30:54.679Z,69.23
2018-11-14T15:34:58.823Z,69.38
2018-11-14T15:39:03.006Z,69.72
2018-11-14T15:43:07.233Z,70.69
2018-11-14T15:47:11.275Z,70.92
2018-11-14T15:51:15.634Z,71.57
2018-11-14T15:55:20.583Z,71.83
2018-11-14T15:59:24.768Z,71.62
2018-11-14T16:03:28.823Z,72.12
2018-11-14T16:07:32.969Z,72.00
2018-11-14T16:11:37.708Z,72.18
2018-11-14T16:15:41.881Z,71.90
2018-11-14T16:19:45.881Z,72.24
2018-11-14T16:23:50.197Z,72.55
2018-11-14T16:27:55.677Z,72.41
2018-11-14T16:31:59.860Z,72.92
2018-11-14T16:36:04.188Z,73.37
2018-11-14T16:40:10.314Z,73.38
2018-11-14T16:44:14.716Z,74.43
2018-11-14T16:48:19.986Z,74.77
2018-11-14T16:52:24.311Z,75.51
2018-11-14T16:56:28.414Z,76.55
2018-11-14T17:00:32.643Z,77.20
2018-11-14T17:04:36.888Z,77.82
2018-11-14T17:08:40.851Z,78.23
2018-11-14T17:12:46.173Z,78.30
2018-11-14T17:16:50.854Z,79.23
2018-11-14T17:20:54.845Z,79.05
2018-11-14T17:24:58.757Z,78.80
2018-11-14T17:29:04.234Z,79.45
2018-11-14T17:33:08.207Z,80.05
2018-11-14T17:37:12.516Z,80.03
2018-11-14T17:41:16.685Z,79.71
2018-11-14T17:45:24.403Z,79.96
2018-11-14T17:49:28.468Z,80.36
2018-11-14T17:53:32.490Z,80.38
2018-11-14T17:57:37.070Z,80.44
2018-11-14T18:01:43.378Z,80.28
2018-11-14T18:05:48.465Z,80.23
2018-11-14T18:09:52.857Z,80.42
2018-11-14T18:13:57.135Z,80.60
2018-11-14T18:18:01.611Z,80.67
2018-11-14T18:22:06.113Z,80.47
2018-11-14T18:26:10.144Z,80.41
2018-11-14T18:30:17.381Z,80.53
2018-11-14T18:34:21.434Z,80.40
2018-11-14T18:38:26.409Z,81.13
2018-11-14T18:42:30.523Z,80.85
2018-11-14T18:46:34.486Z,80.97
2018-11-14T18:50:38.812Z,80.46
2018-11-14T18:54:43.229Z,80.41
2018-11-14T18:58:47.330Z,81.69
2018-11-14T19:02:51.742Z,81.35
2018-11-14T19:06:55.802Z,81.30
2018-11-14T19:11:00.232Z,81.59
2018-11-14T19:15:06.503Z,81.68
2018-11-14T19:19:10.702Z,81.48
2018-11-14T19:23:14.552Z,81.34
2018-11-14T19:27:18.650Z,82.43
2018-11-14T19:31:22.904Z,82.44
2018-11-14T19:35:26.983Z,82.90
2018-11-14T19:39:31.331Z,83.86
2018-11-14T19:43:35.493Z,84.98
2018-11-14T19:47:40.007Z,84.64
2018-11-14T19:51:44.013Z,83.38
2018-11-14T19:55:48.077Z,84.44
2018-11-14T19:59:52.063Z,85.10
2018-11-14T20:03:56.110Z,85.16
2018-11-14T20:08:00.164Z,85.72
2018-11-14T20:12:04.980Z,86.04
2018-11-14T20:16:09.016Z,86.21
2018-11-14T20:20:15.523Z,86.24
2018-11-14T20:24:19.725Z,86.38
2018-11-14T20:28:23.742Z,86.96
2018-11-14T20:32:27.881Z,86.43
2018-11-14T20:36:31.920Z,87.41
2018-11-14T20:40:38.259Z,86.06
2018-11-14T20:44:42.344Z,86.73
2018-11-14T20:48:47.186Z,87.51
2018-11-14T20:52:52.818Z,87.76
2018-11-14T20:56:57.019Z,87.78
2018-11-14T21:01:01.045Z,88.10
2018-11-14T21:05:06.380Z,88.05
2018-11-14T21:09:11.082Z,88.25
2018-11-14T21:13:15.066Z,88.30
2018-11-14T21:17:19.060Z,88.15
2018-11-14T21:21:23.144Z,88.61
2018-11-14T21:25:27.483Z,88.56
2018-11-14T21:29:31.488Z,88.42
2018-11-14T21:33:35.459Z,87.86
2018-11-14T21:37:39.553Z,89.45
2018-11-14T21:41:44.312Z,89.61
2018-11-14T21:45:48.375Z,88.67
2018-11-14T21:49:52.469Z,89.88
2018-11-14T21:53:56.461Z,89.28
2018-11-14T21:58:00.457Z,89.96
2018-11-14T22:02:05.325Z,89.47
2018-11-14T22:06:09.464Z,89.81
2018-11-14T22:10:17.146Z,90.16
2018-11-14T22:14:21.224Z,89.93
2018-11-14T22:18:25.167Z,89.53
2018-11-14T22:22:29.185Z,89.60
2018-11-14T22:26:33.612Z,88.97
2018-11-14T22:30:37.831Z,88.72
2018-11-14T22:34:42.038Z,88.80
2018-11-14T22:38:46.657Z,88.93
2018-11-14T22:42:51.079Z,88.86
2018-11-14T22:46:55.663Z,89.00
2018-11-14T22:50:59.694Z,88.85
2018-11-14T22:55:05.515Z,89.07
2018-11-14T22:59:09.545Z,88.55
2018-11-14T23:03:15.720Z,90.00
2018-11-14T23:07:19.853Z,89.66
2018-11-14T23:11:24.378Z,90.19
2018-11-14T23:15:28.819Z,90.51
2018-11-14T23:19:33.007Z,91.01
2018-11-14T23:23:37.236Z,90.51
2018-11-14T23:27:43.075Z,90.75
2018-11-14T23:31:47.293Z,90.85
2018-11-14T23:35:51.422Z,90.54
2018-11-14T23:39:55.529Z,89.81
2018-11-14T23:44:04.124Z,89.67
2018-11-14T23:48:08.384Z,90.17
2018-11-14T23:52:13.077Z,90.05
2018-11-14T23:56:17.173Z,89.75
